sensor_id;sensor_type;location;lat;lon;timestamp;temperature;humidity
70550;DHT22;58101;48.658;2.328;2022-08-05T00:01:12;20.40;99.90
70550;DHT22;58101;48.658;2.328;2022-08-05T00:03:38;20.30;99.90
70550;DHT22;58101;48.658;2.328;2022-08-05T00:06:04;20.30;99.90
70550;DHT22;58101;48.658;2.328;2022-08-05T00:08:29;20.30;99.90
70550;DHT22;58101;48.658;2.328;2022-08-05T00:10:56;20.30;99.90
70550;DHT22;58101;48.658;2.328;2022-08-05T00:13:22;20.30;99.90
70550;DHT22;58101;48.658;2.328;2022-08-05T00:15:48;20.30;99.90
70550;DHT22;58101;48.658;2.328;2022-08-05T00:18:13;20.20;99.90
70550;DHT22;58101;48.658;2.328;2022-08-05T00:20:39;20.10;99.90
70550;DHT22;58101;48.658;2.328;2022-08-05T00:23:04;20.10;99.90
70550;DHT22;58101;48.658;2.328;2022-08-05T00:25:30;20.10;99.90
70550;DHT22;58101;48.658;2.328;2022-08-05T00:27:56;20.10;99.90
70550;DHT22;58101;48.658;2.328;2022-08-05T00:30:21;20.10;99.90
70550;DHT22;58101;48.658;2.328;2022-08-05T00:32:47;20.10;99.90
70550;DHT22;58101;48.658;2.328;2022-08-05T00:35:14;20.10;99.90
70550;DHT22;58101;48.658;2.328;2022-08-05T00:37:39;20.00;99.90
70550;DHT22;58101;48.658;2.328;2022-08-05T00:40:05;20.10;99.90
70550;DHT22;58101;48.658;2.328;2022-08-05T00:42:34;20.00;99.90
70550;DHT22;58101;48.658;2.328;2022-08-05T00:45:00;20.00;99.90
70550;DHT22;58101;48.658;2.328;2022-08-05T00:47:26;20.00;99.90
70550;DHT22;58101;48.658;2.328;2022-08-05T00:49:52;20.00;99.90
70550;DHT22;58101;48.658;2.328;2022-08-05T00:52:19;19.90;99.90
70550;DHT22;58101;48.658;2.328;2022-08-05T00:55:05;19.90;99.90
70550;DHT22;58101;48.658;2.328;2022-08-05T00:57:31;20.00;99.90
70550;DHT22;58101;48.658;2.328;2022-08-05T00:59:56;19.90;99.90
70550;DHT22;58101;48.658;2.328;2022-08-05T01:02:22;20.00;99.90
70550;DHT22;58101;48.658;2.328;2022-08-05T01:04:47;20.00;99.90
70550;DHT22;58101;48.658;2.328;2022-08-05T01:07:13;19.90;99.90
70550;DHT22;58101;48.658;2.328;2022-08-05T01:09:39;19.90;99.90
70550;DHT22;58101;48.658;2.328;2022-08-05T01:12:09;19.90;99.90
70550;DHT22;58101;48.658;2.328;2022-08-05T01:14:58;19.90;99.90
70550;DHT22;58101;48.658;2.328;2022-08-05T01:17:31;19.90;99.90
70550;DHT22;58101;48.658;2.328;2022-08-05T01:23:21;19.90;99.90
70550;DHT22;58101;48.658;2.328;2022-08-05T01:26:12;19.90;99.90
70550;DHT22;58101;48.658;2.328;2022-08-05T01:28:47;19.80;99.90
70550;DHT22;58101;48.658;2.328;2022-08-05T01:31:26;19.80;99.90
70550;DHT22;58101;48.658;2.328;2022-08-05T01:34:06;19.80;99.90
70550;DHT22;58101;48.658;2.328;2022-08-05T01:36:39;19.70;99.90
70550;DHT22;58101;48.658;2.328;2022-08-05T01:39:06;19.70;99.90
70550;DHT22;58101;48.658;2.328;2022-08-05T01:41:34;19.60;99.90
70550;DHT22;58101;48.658;2.328;2022-08-05T01:44:02;19.60;99.90
70550;DHT22;58101;48.658;2.328;2022-08-05T01:46:31;19.60;99.90
70550;DHT22;58101;48.658;2.328;2022-08-05T01:48:59;19.60;99.90
70550;DHT22;58101;48.658;2.328;2022-08-05T01:51:26;19.50;99.90
70550;DHT22;58101;48.658;2.328;2022-08-05T01:53:53;19.50;99.90
70550;DHT22;58101;48.658;2.328;2022-08-05T01:56:21;19.50;99.90
70550;DHT22;58101;48.658;2.328;2022-08-05T01:59:06;19.40;99.90
70550;DHT22;58101;48.658;2.328;2022-08-05T02:01:33;19.40;99.90
70550;DHT22;58101;48.658;2.328;2022-08-05T02:04:00;19.40;99.90
70550;DHT22;58101;48.658;2.328;2022-08-05T02:06:27;19.30;99.90
70550;DHT22;58101;48.658;2.328;2022-08-05T02:08:53;19.20;99.90
70550;DHT22;58101;48.658;2.328;2022-08-05T02:11:20;19.20;99.90
70550;DHT22;58101;48.658;2.328;2022-08-05T02:13:57;19.20;99.90
70550;DHT22;58101;48.658;2.328;2022-08-05T02:16:33;19.10;99.90
70550;DHT22;58101;48.658;2.328;2022-08-05T02:22:18;19.10;99.90
70550;DHT22;58101;48.658;2.328;2022-08-05T02:24:49;19.00;99.90
70550;DHT22;58101;48.658;2.328;2022-08-05T02:27:17;19.00;99.90
70550;DHT22;58101;48.658;2.328;2022-08-05T02:29:45;18.90;99.90
70550;DHT22;58101;48.658;2.328;2022-08-05T02:32:12;18.90;99.90
70550;DHT22;58101;48.658;2.328;2022-08-05T02:34:40;18.90;99.90
70550;DHT22;58101;48.658;2.328;2022-08-05T02:37:07;18.80;99.90
70550;DHT22;58101;48.658;2.328;2022-08-05T02:39:36;18.80;99.90
70550;DHT22;58101;48.658;2.328;2022-08-05T02:42:03;18.70;99.90
70550;DHT22;58101;48.658;2.328;2022-08-05T02:44:31;18.70;99.90
70550;DHT22;58101;48.658;2.328;2022-08-05T02:46:58;18.70;99.90
70550;DHT22;58101;48.658;2.328;2022-08-05T02:49:25;18.70;99.90
70550;DHT22;58101;48.658;2.328;2022-08-05T02:51:51;18.70;99.90
70550;DHT22;58101;48.658;2.328;2022-08-05T02:54:19;18.70;99.90
70550;DHT22;58101;48.658;2.328;2022-08-05T02:56:46;18.60;99.90
70550;DHT22;58101;48.658;2.328;2022-08-05T02:59:13;18.60;99.90
70550;DHT22;58101;48.658;2.328;2022-08-05T03:01:40;18.60;99.90
70550;DHT22;58101;48.658;2.328;2022-08-05T03:04:07;18.60;99.90
70550;DHT22;58101;48.658;2.328;2022-08-05T03:06:35;18.60;99.90
70550;DHT22;58101;48.658;2.328;2022-08-05T03:09:03;18.60;99.90
70550;DHT22;58101;48.658;2.328;2022-08-05T03:11:28;18.50;99.90
70550;DHT22;58101;48.658;2.328;2022-08-05T03:13:54;18.50;99.90
70550;DHT22;58101;48.658;2.328;2022-08-05T03:16:20;18.50;99.90
70550;DHT22;58101;48.658;2.328;2022-08-05T03:18:46;18.50;99.90
70550;DHT22;58101;48.658;2.328;2022-08-05T03:21:12;18.50;99.90
70550;DHT22;58101;48.658;2.328;2022-08-05T03:23:40;18.50;99.90
70550;DHT22;58101;48.658;2.328;2022-08-05T03:26:07;18.50;99.90
70550;DHT22;58101;48.658;2.328;2022-08-05T03:28:33;18.50;99.90
70550;DHT22;58101;48.658;2.328;2022-08-05T03:30:59;18.40;99.90
70550;DHT22;58101;48.658;2.328;2022-08-05T03:33:26;18.40;99.90
70550;DHT22;58101;48.658;2.328;2022-08-05T03:35:54;18.40;99.90
70550;DHT22;58101;48.658;2.328;2022-08-05T03:38:21;18.40;99.90
70550;DHT22;58101;48.658;2.328;2022-08-05T03:40:48;18.40;99.90
70550;DHT22;58101;48.658;2.328;2022-08-05T03:43:14;18.40;99.90
70550;DHT22;58101;48.658;2.328;2022-08-05T03:45:40;18.40;99.90
70550;DHT22;58101;48.658;2.328;2022-08-05T03:48:06;18.40;99.90
70550;DHT22;58101;48.658;2.328;2022-08-05T03:50:50;18.30;99.90
70550;DHT22;58101;48.658;2.328;2022-08-05T03:53:26;18.40;99.90
70550;DHT22;58101;48.658;2.328;2022-08-05T03:58:34;18.30;99.90
70550;DHT22;58101;48.658;2.328;2022-08-05T04:01:03;18.30;99.90
70550;DHT22;58101;48.658;2.328;2022-08-05T04:03:30;18.30;99.90
70550;DHT22;58101;48.658;2.328;2022-08-05T04:06:01;18.30;99.90
70550;DHT22;58101;48.658;2.328;2022-08-05T04:08:27;18.20;99.90
70550;DHT22;58101;48.658;2.328;2022-08-05T04:10:55;18.20;99.90
70550;DHT22;58101;48.658;2.328;2022-08-05T04:13:22;18.20;99.90
70550;DHT22;58101;48.658;2.328;2022-08-05T04:15:49;18.20;99.90
70550;DHT22;58101;48.658;2.328;2022-08-05T04:18:15;18.20;99.90
70550;DHT22;58101;48.658;2.328;2022-08-05T04:20:41;18.20;99.90
70550;DHT22;58101;48.658;2.328;2022-08-05T04:23:08;18.20;99.90
70550;DHT22;58101;48.658;2.328;2022-08-05T04:25:34;18.20;99.90
70550;DHT22;58101;48.658;2.328;2022-08-05T04:28:00;18.20;99.90
70550;DHT22;58101;48.658;2.328;2022-08-05T04:30:25;18.20;99.90
70550;DHT22;58101;48.658;2.328;2022-08-05T04:32:51;18.20;99.90
70550;DHT22;58101;48.658;2.328;2022-08-05T04:35:17;18.30;99.90
70550;DHT22;58101;48.658;2.328;2022-08-05T04:37:42;18.20;99.90
70550;DHT22;58101;48.658;2.328;2022-08-05T04:40:09;18.20;99.90
70550;DHT22;58101;48.658;2.328;2022-08-05T04:42:34;18.30;99.90
70550;DHT22;58101;48.658;2.328;2022-08-05T04:45:00;18.30;99.90
70550;DHT22;58101;48.658;2.328;2022-08-05T04:47:25;18.30;99.90
70550;DHT22;58101;48.658;2.328;2022-08-05T04:49:51;18.30;99.90
70550;DHT22;58101;48.658;2.328;2022-08-05T04:52:17;18.30;99.90
70550;DHT22;58101;48.658;2.328;2022-08-05T04:54:42;18.30;99.90
70550;DHT22;58101;48.658;2.328;2022-08-05T04:57:08;18.30;99.90
70550;DHT22;58101;48.658;2.328;2022-08-05T04:59:34;18.30;99.90
70550;DHT22;58101;48.658;2.328;2022-08-05T05:01:59;18.30;99.90
70550;DHT22;58101;48.658;2.328;2022-08-05T05:04:25;18.30;99.90
70550;DHT22;58101;48.658;2.328;2022-08-05T05:06:50;18.20;99.90
70550;DHT22;58101;48.658;2.328;2022-08-05T05:09:16;18.20;99.90
70550;DHT22;58101;48.658;2.328;2022-08-05T05:11:42;18.30;99.90
70550;DHT22;58101;48.658;2.328;2022-08-05T05:14:07;18.30;99.90
70550;DHT22;58101;48.658;2.328;2022-08-05T05:16:33;18.30;99.90
70550;DHT22;58101;48.658;2.328;2022-08-05T05:18:59;18.30;99.90
70550;DHT22;58101;48.658;2.328;2022-08-05T05:21:25;18.30;99.90
70550;DHT22;58101;48.658;2.328;2022-08-05T05:23:50;18.30;99.90
70550;DHT22;58101;48.658;2.328;2022-08-05T05:26:16;18.30;99.90
70550;DHT22;58101;48.658;2.328;2022-08-05T05:28:42;18.30;99.90
70550;DHT22;58101;48.658;2.328;2022-08-05T05:31:07;18.30;99.90
70550;DHT22;58101;48.658;2.328;2022-08-05T05:33:33;18.30;99.90
70550;DHT22;58101;48.658;2.328;2022-08-05T05:35:58;18.30;99.90
70550;DHT22;58101;48.658;2.328;2022-08-05T05:38:24;18.30;99.90
70550;DHT22;58101;48.658;2.328;2022-08-05T05:40:50;18.30;99.90
70550;DHT22;58101;48.658;2.328;2022-08-05T05:43:15;18.30;99.90
70550;DHT22;58101;48.658;2.328;2022-08-05T05:45:41;18.40;99.90
70550;DHT22;58101;48.658;2.328;2022-08-05T05:48:07;18.40;99.90
70550;DHT22;58101;48.658;2.328;2022-08-05T05:50:33;18.40;99.90
70550;DHT22;58101;48.658;2.328;2022-08-05T05:53:00;18.40;99.90
70550;DHT22;58101;48.658;2.328;2022-08-05T05:55:25;18.40;99.90
70550;DHT22;58101;48.658;2.328;2022-08-05T05:57:51;18.50;99.90
70550;DHT22;58101;48.658;2.328;2022-08-05T06:00:19;18.50;99.90
70550;DHT22;58101;48.658;2.328;2022-08-05T06:02:45;18.50;99.90
70550;DHT22;58101;48.658;2.328;2022-08-05T06:05:13;18.50;99.90
70550;DHT22;58101;48.658;2.328;2022-08-05T06:07:39;18.50;99.90
70550;DHT22;58101;48.658;2.328;2022-08-05T06:10:06;18.60;99.90
70550;DHT22;58101;48.658;2.328;2022-08-05T06:12:33;18.60;99.90
70550;DHT22;58101;48.658;2.328;2022-08-05T06:15:00;18.70;99.90
70550;DHT22;58101;48.658;2.328;2022-08-05T06:17:25;18.70;99.90
70550;DHT22;58101;48.658;2.328;2022-08-05T06:19:51;18.70;99.90
70550;DHT22;58101;48.658;2.328;2022-08-05T06:22:31;18.70;99.90
70550;DHT22;58101;48.658;2.328;2022-08-05T06:25:00;18.70;99.90
70550;DHT22;58101;48.658;2.328;2022-08-05T06:27:26;18.60;99.90
70550;DHT22;58101;48.658;2.328;2022-08-05T06:29:55;18.80;99.90
70550;DHT22;58101;48.658;2.328;2022-08-05T06:32:21;18.80;99.90
70550;DHT22;58101;48.658;2.328;2022-08-05T06:34:46;18.90;99.90
70550;DHT22;58101;48.658;2.328;2022-08-05T06:37:12;19.00;99.90
70550;DHT22;58101;48.658;2.328;2022-08-05T06:39:38;19.00;99.90
70550;DHT22;58101;48.658;2.328;2022-08-05T06:42:04;19.10;99.90
70550;DHT22;58101;48.658;2.328;2022-08-05T06:44:30;19.10;99.90
70550;DHT22;58101;48.658;2.328;2022-08-05T06:46:55;19.10;99.90
70550;DHT22;58101;48.658;2.328;2022-08-05T06:49:21;19.20;99.90
70550;DHT22;58101;48.658;2.328;2022-08-05T06:51:47;19.30;99.90
70550;DHT22;58101;48.658;2.328;2022-08-05T06:54:13;19.50;99.90
70550;DHT22;58101;48.658;2.328;2022-08-05T06:56:38;19.60;99.90
70550;DHT22;58101;48.658;2.328;2022-08-05T06:59:05;19.70;99.90
70550;DHT22;58101;48.658;2.328;2022-08-05T07:01:31;19.80;99.90
70550;DHT22;58101;48.658;2.328;2022-08-05T07:03:57;19.90;99.90
70550;DHT22;58101;48.658;2.328;2022-08-05T07:06:22;20.00;99.90
70550;DHT22;58101;48.658;2.328;2022-08-05T07:08:48;20.10;99.90
70550;DHT22;58101;48.658;2.328;2022-08-05T07:11:15;20.10;99.90
70550;DHT22;58101;48.658;2.328;2022-08-05T07:13:40;20.20;99.90
70550;DHT22;58101;48.658;2.328;2022-08-05T07:16:25;20.20;99.90
70550;DHT22;58101;48.658;2.328;2022-08-05T07:19:09;20.30;99.90
70550;DHT22;58101;48.658;2.328;2022-08-05T07:21:35;20.30;99.90
70550;DHT22;58101;48.658;2.328;2022-08-05T07:24:00;20.50;99.90
70550;DHT22;58101;48.658;2.328;2022-08-05T07:26:26;20.50;99.90
70550;DHT22;58101;48.658;2.328;2022-08-05T07:28:52;20.60;99.90
70550;DHT22;58101;48.658;2.328;2022-08-05T07:31:18;20.70;99.90
70550;DHT22;58101;48.658;2.328;2022-08-05T07:33:43;20.90;99.90
70550;DHT22;58101;48.658;2.328;2022-08-05T07:36:09;20.90;99.90
70550;DHT22;58101;48.658;2.328;2022-08-05T07:38:36;20.90;99.90
70550;DHT22;58101;48.658;2.328;2022-08-05T07:41:07;21.00;99.90
70550;DHT22;58101;48.658;2.328;2022-08-05T07:43:33;21.00;99.90
70550;DHT22;58101;48.658;2.328;2022-08-05T07:45:58;21.10;99.90
70550;DHT22;58101;48.658;2.328;2022-08-05T07:48:25;21.10;99.90
70550;DHT22;58101;48.658;2.328;2022-08-05T07:50:50;21.20;99.90
70550;DHT22;58101;48.658;2.328;2022-08-05T07:53:16;21.20;99.40
70550;DHT22;58101;48.658;2.328;2022-08-05T07:55:42;21.30;98.10
70550;DHT22;58101;48.658;2.328;2022-08-05T07:58:07;21.30;99.90
70550;DHT22;58101;48.658;2.328;2022-08-05T08:00:33;21.40;99.90
70550;DHT22;58101;48.658;2.328;2022-08-05T08:02:59;21.50;98.60
70550;DHT22;58101;48.658;2.328;2022-08-05T08:05:24;21.60;97.60
70550;DHT22;58101;48.658;2.328;2022-08-05T08:07:51;21.80;98.50
70550;DHT22;58101;48.658;2.328;2022-08-05T08:10:17;21.90;96.50
70550;DHT22;58101;48.658;2.328;2022-08-05T08:12:43;22.00;93.70
70550;DHT22;58101;48.658;2.328;2022-08-05T08:15:09;22.10;94.70
70550;DHT22;58101;48.658;2.328;2022-08-05T08:17:35;22.20;95.10
70550;DHT22;58101;48.658;2.328;2022-08-05T08:20:01;22.30;94.00
70550;DHT22;58101;48.658;2.328;2022-08-05T08:22:30;22.40;94.50
70550;DHT22;58101;48.658;2.328;2022-08-05T08:24:56;22.50;93.70
70550;DHT22;58101;48.658;2.328;2022-08-05T08:27:21;22.60;93.70
70550;DHT22;58101;48.658;2.328;2022-08-05T08:29:47;22.70;92.90
70550;DHT22;58101;48.658;2.328;2022-08-05T08:32:13;22.90;92.70
70550;DHT22;58101;48.658;2.328;2022-08-05T08:34:39;23.00;92.50
70550;DHT22;58101;48.658;2.328;2022-08-05T08:37:04;23.20;91.90
70550;DHT22;58101;48.658;2.328;2022-08-05T08:39:30;23.40;91.40
70550;DHT22;58101;48.658;2.328;2022-08-05T08:41:56;23.50;85.30
70550;DHT22;58101;48.658;2.328;2022-08-05T08:44:29;23.70;88.60
70550;DHT22;58101;48.658;2.328;2022-08-05T08:46:56;23.80;89.30
70550;DHT22;58101;48.658;2.328;2022-08-05T08:49:23;23.90;89.20
70550;DHT22;58101;48.658;2.328;2022-08-05T08:51:57;24.10;87.60
70550;DHT22;58101;48.658;2.328;2022-08-05T08:54:24;24.20;85.10
70550;DHT22;58101;48.658;2.328;2022-08-05T08:56:51;24.30;82.50
70550;DHT22;58101;48.658;2.328;2022-08-05T08:59:17;24.40;82.50
70550;DHT22;58101;48.658;2.328;2022-08-05T09:01:43;24.60;82.50
70550;DHT22;58101;48.658;2.328;2022-08-05T09:04:10;24.80;82.50
70550;DHT22;58101;48.658;2.328;2022-08-05T09:06:37;25.00;78.80
70550;DHT22;58101;48.658;2.328;2022-08-05T09:09:03;25.20;77.30
70550;DHT22;58101;48.658;2.328;2022-08-05T09:11:29;25.60;76.20
70550;DHT22;58101;48.658;2.328;2022-08-05T09:13:55;26.20;74.70
70550;DHT22;58101;48.658;2.328;2022-08-05T09:16:21;27.30;70.30
70550;DHT22;58101;48.658;2.328;2022-08-05T09:18:46;28.60;64.80
70550;DHT22;58101;48.658;2.328;2022-08-05T09:21:13;30.00;57.60
70550;DHT22;58101;48.658;2.328;2022-08-05T09:23:39;31.50;53.00
70550;DHT22;58101;48.658;2.328;2022-08-05T09:26:10;32.70;48.20
70550;DHT22;58101;48.658;2.328;2022-08-05T09:28:38;33.60;44.50
70550;DHT22;58101;48.658;2.328;2022-08-05T09:31:11;34.30;41.20
70550;DHT22;58101;48.658;2.328;2022-08-05T09:36:17;35.30;38.70
70550;DHT22;58101;48.658;2.328;2022-08-05T09:39:00;35.60;38.60
70550;DHT22;58101;48.658;2.328;2022-08-05T09:41:27;36.10;37.00
70550;DHT22;58101;48.658;2.328;2022-08-05T09:43:53;36.40;35.40
70550;DHT22;58101;48.658;2.328;2022-08-05T09:46:32;36.70;34.50
70550;DHT22;58101;48.658;2.328;2022-08-05T09:49:02;36.80;32.60
70550;DHT22;58101;48.658;2.328;2022-08-05T09:51:36;36.80;31.70
70550;DHT22;58101;48.658;2.328;2022-08-05T09:54:07;37.00;32.80
70550;DHT22;58101;48.658;2.328;2022-08-05T09:56:37;37.20;32.60
70550;DHT22;58101;48.658;2.328;2022-08-05T09:59:08;37.30;31.50
70550;DHT22;58101;48.658;2.328;2022-08-05T10:01:35;37.30;31.60
70550;DHT22;58101;48.658;2.328;2022-08-05T10:04:04;37.40;31.50
70550;DHT22;58101;48.658;2.328;2022-08-05T10:06:31;37.40;31.30
70550;DHT22;58101;48.658;2.328;2022-08-05T10:09:11;37.40;30.60
70550;DHT22;58101;48.658;2.328;2022-08-05T10:11:38;37.40;30.40
70550;DHT22;58101;48.658;2.328;2022-08-05T10:14:23;37.60;30.00
70550;DHT22;58101;48.658;2.328;2022-08-05T10:16:50;37.90;28.80
70550;DHT22;58101;48.658;2.328;2022-08-05T10:19:16;38.20;28.40
70550;DHT22;58101;48.658;2.328;2022-08-05T10:21:42;38.40;27.70
70550;DHT22;58101;48.658;2.328;2022-08-05T10:24:08;38.60;26.90
70550;DHT22;58101;48.658;2.328;2022-08-05T10:26:39;38.60;26.80
70550;DHT22;58101;48.658;2.328;2022-08-05T10:29:06;38.60;26.40
70550;DHT22;58101;48.658;2.328;2022-08-05T10:31:32;38.80;27.30
70550;DHT22;58101;48.658;2.328;2022-08-05T10:33:58;38.80;26.00
70550;DHT22;58101;48.658;2.328;2022-08-05T10:36:24;39.10;26.50
70550;DHT22;58101;48.658;2.328;2022-08-05T10:38:51;39.10;26.80
70550;DHT22;58101;48.658;2.328;2022-08-05T10:41:47;39.10;26.00
70550;DHT22;58101;48.658;2.328;2022-08-05T10:44:18;39.10;25.80
70550;DHT22;58101;48.658;2.328;2022-08-05T10:46:53;38.90;26.10
70550;DHT22;58101;48.658;2.328;2022-08-05T10:49:20;38.80;26.10
70550;DHT22;58101;48.658;2.328;2022-08-05T10:51:49;38.40;25.90
70550;DHT22;58101;48.658;2.328;2022-08-05T10:54:16;38.20;26.80
70550;DHT22;58101;48.658;2.328;2022-08-05T10:56:50;38.20;26.50
70550;DHT22;58101;48.658;2.328;2022-08-05T10:59:18;38.00;27.20
70550;DHT22;58101;48.658;2.328;2022-08-05T11:01:44;38.00;26.90
70550;DHT22;58101;48.658;2.328;2022-08-05T11:04:27;37.90;27.10
70550;DHT22;58101;48.658;2.328;2022-08-05T11:09:26;37.00;27.70
70550;DHT22;58101;48.658;2.328;2022-08-05T11:11:53;36.60;27.80
70550;DHT22;58101;48.658;2.328;2022-08-05T11:14:37;36.50;28.00
70550;DHT22;58101;48.658;2.328;2022-08-05T11:19:52;36.00;29.60
70550;DHT22;58101;48.658;2.328;2022-08-05T11:22:46;35.90;29.60
70550;DHT22;58101;48.658;2.328;2022-08-05T11:25:32;35.70;29.10
70550;DHT22;58101;48.658;2.328;2022-08-05T11:35:56;35.50;28.30
70550;DHT22;58101;48.658;2.328;2022-08-05T11:41:25;35.40;29.30
70550;DHT22;58101;48.658;2.328;2022-08-05T11:46:31;34.80;30.00
70550;DHT22;58101;48.658;2.328;2022-08-05T11:48:58;34.50;30.00
70550;DHT22;58101;48.658;2.328;2022-08-05T11:51:25;34.20;30.00
70550;DHT22;58101;48.658;2.328;2022-08-05T11:53:52;34.10;29.40
70550;DHT22;58101;48.658;2.328;2022-08-05T11:56:18;34.20;31.20
70550;DHT22;58101;48.658;2.328;2022-08-05T11:58:46;34.30;29.90
70550;DHT22;58101;48.658;2.328;2022-08-05T12:01:19;33.90;30.60
70550;DHT22;58101;48.658;2.328;2022-08-05T12:03:47;33.70;31.50
70550;DHT22;58101;48.658;2.328;2022-08-05T12:06:15;33.40;33.10
70550;DHT22;58101;48.658;2.328;2022-08-05T12:11:08;33.40;32.50
70550;DHT22;58101;48.658;2.328;2022-08-05T12:13:35;33.60;33.10
70550;DHT22;58101;48.658;2.328;2022-08-05T12:16:01;33.70;32.70
70550;DHT22;58101;48.658;2.328;2022-08-05T12:18:34;33.40;31.20
70550;DHT22;58101;48.658;2.328;2022-08-05T12:21:14;33.30;31.60
70550;DHT22;58101;48.658;2.328;2022-08-05T12:23:51;33.10;31.20
70550;DHT22;58101;48.658;2.328;2022-08-05T12:26:17;33.20;31.10
70550;DHT22;58101;48.658;2.328;2022-08-05T12:28:43;33.30;31.90
70550;DHT22;58101;48.658;2.328;2022-08-05T12:31:09;33.50;32.40
70550;DHT22;58101;48.658;2.328;2022-08-05T12:33:35;33.60;32.50
70550;DHT22;58101;48.658;2.328;2022-08-05T12:36:01;33.70;31.40
70550;DHT22;58101;48.658;2.328;2022-08-05T12:38:27;33.50;32.40
70550;DHT22;58101;48.658;2.328;2022-08-05T12:40:55;33.30;32.30
70550;DHT22;58101;48.658;2.328;2022-08-05T12:43:21;33.20;34.00
70550;DHT22;58101;48.658;2.328;2022-08-05T12:45:54;33.20;31.90
70550;DHT22;58101;48.658;2.328;2022-08-05T12:48:21;33.30;32.70
70550;DHT22;58101;48.658;2.328;2022-08-05T12:51:26;33.30;32.40
70550;DHT22;58101;48.658;2.328;2022-08-05T12:53:58;33.20;29.70
70550;DHT22;58101;48.658;2.328;2022-08-05T12:56:25;32.80;31.70
70550;DHT22;58101;48.658;2.328;2022-08-05T12:59:10;32.40;31.80
70550;DHT22;58101;48.658;2.328;2022-08-05T13:01:37;31.70;32.40
70550;DHT22;58101;48.658;2.328;2022-08-05T13:04:04;31.50;34.40
70550;DHT22;58101;48.658;2.328;2022-08-05T13:06:29;31.50;33.30
70550;DHT22;58101;48.658;2.328;2022-08-05T13:08:56;31.60;32.60
70550;DHT22;58101;48.658;2.328;2022-08-05T13:11:22;31.80;32.30
70550;DHT22;58101;48.658;2.328;2022-08-05T13:13:55;31.90;31.30
70550;DHT22;58101;48.658;2.328;2022-08-05T13:16:21;31.90;33.70
70550;DHT22;58101;48.658;2.328;2022-08-05T13:18:53;31.90;31.90
70550;DHT22;58101;48.658;2.328;2022-08-05T13:21:20;31.80;32.10
70550;DHT22;58101;48.658;2.328;2022-08-05T13:23:46;31.70;32.70
70550;DHT22;58101;48.658;2.328;2022-08-05T13:26:11;31.70;32.60
70550;DHT22;58101;48.658;2.328;2022-08-05T13:28:37;31.80;31.70
70550;DHT22;58101;48.658;2.328;2022-08-05T13:31:02;31.90;33.70
70550;DHT22;58101;48.658;2.328;2022-08-05T13:33:28;31.90;31.80
70550;DHT22;58101;48.658;2.328;2022-08-05T13:35:54;31.70;31.40
70550;DHT22;58101;48.658;2.328;2022-08-05T13:38:20;31.40;32.90
70550;DHT22;58101;48.658;2.328;2022-08-05T13:40:45;31.30;32.60
70550;DHT22;58101;48.658;2.328;2022-08-05T13:43:11;31.30;33.20
70550;DHT22;58101;48.658;2.328;2022-08-05T13:45:38;31.50;33.30
70550;DHT22;58101;48.658;2.328;2022-08-05T13:48:04;31.60;32.40
70550;DHT22;58101;48.658;2.328;2022-08-05T13:50:29;31.40;31.30
70550;DHT22;58101;48.658;2.328;2022-08-05T13:52:55;31.30;31.70
70550;DHT22;58101;48.658;2.328;2022-08-05T13:55:21;31.30;31.10
70550;DHT22;58101;48.658;2.328;2022-08-05T13:57:46;31.40;33.20
70550;DHT22;58101;48.658;2.328;2022-08-05T14:00:12;31.60;32.90
70550;DHT22;58101;48.658;2.328;2022-08-05T14:02:38;31.60;33.60
70550;DHT22;58101;48.658;2.328;2022-08-05T14:05:04;31.60;33.60
70550;DHT22;58101;48.658;2.328;2022-08-05T14:07:37;31.60;32.50
70550;DHT22;58101;48.658;2.328;2022-08-05T14:10:12;31.60;33.80
70550;DHT22;58101;48.658;2.328;2022-08-05T14:12:38;31.60;33.90
70550;DHT22;58101;48.658;2.328;2022-08-05T14:15:05;31.60;34.40
70550;DHT22;58101;48.658;2.328;2022-08-05T14:17:30;31.70;34.80
70550;DHT22;58101;48.658;2.328;2022-08-05T14:19:56;31.70;33.70
70550;DHT22;58101;48.658;2.328;2022-08-05T14:22:22;31.60;33.80
70550;DHT22;58101;48.658;2.328;2022-08-05T14:24:48;31.60;33.20
70550;DHT22;58101;48.658;2.328;2022-08-05T14:27:14;31.50;33.20
70550;DHT22;58101;48.658;2.328;2022-08-05T14:29:39;31.20;32.40
70550;DHT22;58101;48.658;2.328;2022-08-05T14:32:05;30.80;32.40
70550;DHT22;58101;48.658;2.328;2022-08-05T14:34:32;30.50;32.70
70550;DHT22;58101;48.658;2.328;2022-08-05T14:36:58;30.00;34.60
70550;DHT22;58101;48.658;2.328;2022-08-05T14:39:23;29.70;34.70
70550;DHT22;58101;48.658;2.328;2022-08-05T14:41:50;29.50;36.30
70550;DHT22;58101;48.658;2.328;2022-08-05T14:44:16;29.40;37.20
70550;DHT22;58101;48.658;2.328;2022-08-05T14:46:45;29.30;36.10
70550;DHT22;58101;48.658;2.328;2022-08-05T14:49:10;29.30;36.70
70550;DHT22;58101;48.658;2.328;2022-08-05T14:51:37;29.40;38.30
70550;DHT22;58101;48.658;2.328;2022-08-05T14:54:06;29.40;36.60
70550;DHT22;58101;48.658;2.328;2022-08-05T14:56:32;29.50;36.00
70550;DHT22;58101;48.658;2.328;2022-08-05T14:58:58;29.50;36.20
70550;DHT22;58101;48.658;2.328;2022-08-05T15:01:24;29.50;35.90
70550;DHT22;58101;48.658;2.328;2022-08-05T15:03:50;29.60;35.50
70550;DHT22;58101;48.658;2.328;2022-08-05T15:06:15;29.70;35.60
70550;DHT22;58101;48.658;2.328;2022-08-05T15:08:45;29.80;35.10
70550;DHT22;58101;48.658;2.328;2022-08-05T15:11:11;29.80;34.90
70550;DHT22;58101;48.658;2.328;2022-08-05T15:13:37;29.80;34.10
70550;DHT22;58101;48.658;2.328;2022-08-05T15:16:02;29.60;34.00
70550;DHT22;58101;48.658;2.328;2022-08-05T15:18:28;29.50;35.40
70550;DHT22;58101;48.658;2.328;2022-08-05T15:20:54;29.40;35.10
70550;DHT22;58101;48.658;2.328;2022-08-05T15:23:19;29.30;34.90
70550;DHT22;58101;48.658;2.328;2022-08-05T15:25:45;29.20;35.50
70550;DHT22;58101;48.658;2.328;2022-08-05T15:28:12;29.10;35.00
70550;DHT22;58101;48.658;2.328;2022-08-05T15:30:38;29.00;35.50
70550;DHT22;58101;48.658;2.328;2022-08-05T15:33:05;28.80;35.60
70550;DHT22;58101;48.658;2.328;2022-08-05T15:35:31;28.60;36.10
70550;DHT22;58101;48.658;2.328;2022-08-05T15:37:56;28.60;36.20
70550;DHT22;58101;48.658;2.328;2022-08-05T15:40:22;28.60;35.90
70550;DHT22;58101;48.658;2.328;2022-08-05T15:42:48;28.50;35.90
70550;DHT22;58101;48.658;2.328;2022-08-05T15:45:14;28.50;36.40
70550;DHT22;58101;48.658;2.328;2022-08-05T15:47:41;28.50;35.90
70550;DHT22;58101;48.658;2.328;2022-08-05T15:50:08;28.60;36.10
70550;DHT22;58101;48.658;2.328;2022-08-05T15:52:35;28.60;36.00
70550;DHT22;58101;48.658;2.328;2022-08-05T15:55:03;28.60;35.80
70550;DHT22;58101;48.658;2.328;2022-08-05T15:57:29;28.60;35.10
70550;DHT22;58101;48.658;2.328;2022-08-05T15:59:55;28.60;34.50
70550;DHT22;58101;48.658;2.328;2022-08-05T16:02:20;28.50;36.80
70550;DHT22;58101;48.658;2.328;2022-08-05T16:04:46;28.40;35.00
70550;DHT22;58101;48.658;2.328;2022-08-05T16:07:12;28.30;35.50